sensor_id;sensor_type;location;lat;lon;timestamp;P1;durP1;ratioP1;P2;durP2;ratioP2
6203;SDS011;3135;42.602;23.468;2023-03-13T00:00:31;5.45;;;3.15;;
6203;SDS011;3135;42.602;23.468;2023-03-13T00:02:57;4.03;;;3.40;;
6203;SDS011;3135;42.602;23.468;2023-03-13T00:05:22;7.27;;;4.10;;
6203;SDS011;3135;42.602;23.468;2023-03-13T00:07:47;5.23;;;3.50;;
6203;SDS011;3135;42.602;23.468;2023-03-13T00:10:13;7.10;;;4.87;;
6203;SDS011;3135;42.602;23.468;2023-03-13T00:12:38;8.73;;;4.87;;
6203;SDS011;3135;42.602;23.468;2023-03-13T00:15:04;4.43;;;3.00;;
6203;SDS011;3135;42.602;23.468;2023-03-13T00:17:29;4.00;;;3.00;;
6203;SDS011;3135;42.602;23.468;2023-03-13T00:19:57;4.07;;;3.20;;
6203;SDS011;3135;42.602;23.468;2023-03-13T00:22:22;3.87;;;2.90;;
6203;SDS011;3135;42.602;23.468;2023-03-13T00:24:48;5.17;;;3.43;;
6203;SDS011;3135;42.602;23.468;2023-03-13T00:27:13;4.47;;;2.70;;
6203;SDS011;3135;42.602;23.468;2023-03-13T00:29:39;4.30;;;3.20;;
6203;SDS011;3135;42.602;23.468;2023-03-13T00:32:05;4.30;;;3.07;;
6203;SDS011;3135;42.602;23.468;2023-03-13T00:34:30;5.60;;;3.83;;
6203;SDS011;3135;42.602;23.468;2023-03-13T00:36:56;5.63;;;3.33;;
6203;SDS011;3135;42.602;23.468;2023-03-13T00:39:21;5.00;;;3.33;;
6203;SDS011;3135;42.602;23.468;2023-03-13T00:41:47;4.30;;;3.10;;
6203;SDS011;3135;42.602;23.468;2023-03-13T00:44:12;4.87;;;2.83;;
6203;SDS011;3135;42.602;23.468;2023-03-13T00:46:38;4.57;;;3.35;;
6203;SDS011;3135;42.602;23.468;2023-03-13T00:49:04;4.17;;;3.30;;
6203;SDS011;3135;42.602;23.468;2023-03-13T00:51:30;5.35;;;3.08;;
6203;SDS011;3135;42.602;23.468;2023-03-13T00:53:56;3.87;;;2.97;;
6203;SDS011;3135;42.602;23.468;2023-03-13T00:56:26;8.40;;;4.35;;
6203;SDS011;3135;42.602;23.468;2023-03-13T00:58:52;20.17;;;7.07;;
6203;SDS011;3135;42.602;23.468;2023-03-13T01:01:19;4.07;;;3.10;;
6203;SDS011;3135;42.602;23.468;2023-03-13T01:03:48;3.93;;;2.93;;
6203;SDS011;3135;42.602;23.468;2023-03-13T01:06:16;4.38;;;3.10;;
6203;SDS011;3135;42.602;23.468;2023-03-13T01:08:43;7.22;;;3.20;;
6203;SDS011;3135;42.602;23.468;2023-03-13T01:11:12;5.10;;;2.88;;
6203;SDS011;3135;42.602;23.468;2023-03-13T01:13:40;4.22;;;2.95;;
6203;SDS011;3135;42.602;23.468;2023-03-13T01:16:07;5.50;;;3.25;;
6203;SDS011;3135;42.602;23.468;2023-03-13T01:18:37;3.23;;;2.80;;
6203;SDS011;3135;42.602;23.468;2023-03-13T01:21:04;4.78;;;3.17;;
6203;SDS011;3135;42.602;23.468;2023-03-13T01:23:30;6.50;;;3.72;;
6203;SDS011;3135;42.602;23.468;2023-03-13T01:25:56;6.97;;;3.80;;
6203;SDS011;3135;42.602;23.468;2023-03-13T01:28:22;6.00;;;3.53;;
6203;SDS011;3135;42.602;23.468;2023-03-13T01:30:48;6.78;;;4.13;;
6203;SDS011;3135;42.602;23.468;2023-03-13T01:33:14;7.70;;;5.50;;
6203;SDS011;3135;42.602;23.468;2023-03-13T01:35:39;8.77;;;5.00;;
6203;SDS011;3135;42.602;23.468;2023-03-13T01:38:05;3.75;;;3.17;;
6203;SDS011;3135;42.602;23.468;2023-03-13T01:40:30;3.92;;;2.90;;
6203;SDS011;3135;42.602;23.468;2023-03-13T01:42:57;4.60;;;3.40;;
6203;SDS011;3135;42.602;23.468;2023-03-13T01:49:06;5.73;;;3.97;;
6203;SDS011;3135;42.602;23.468;2023-03-13T01:51:10;4.05;;;2.97;;
6203;SDS011;3135;42.602;23.468;2023-03-13T01:54:05;3.47;;;2.60;;
6203;SDS011;3135;42.602;23.468;2023-03-13T01:59:43;4.37;;;2.90;;
6203;SDS011;3135;42.602;23.468;2023-03-13T02:02:13;3.38;;;2.83;;
6203;SDS011;3135;42.602;23.468;2023-03-13T02:04:42;3.60;;;2.80;;
6203;SDS011;3135;42.602;23.468;2023-03-13T02:07:14;3.90;;;2.55;;
6203;SDS011;3135;42.602;23.468;2023-03-13T02:09:51;4.72;;;2.90;;
6203;SDS011;3135;42.602;23.468;2023-03-13T02:12:40;10.75;;;4.20;;
6203;SDS011;3135;42.602;23.468;2023-03-13T02:15:07;4.35;;;2.97;;
6203;SDS011;3135;42.602;23.468;2023-03-13T02:17:35;3.78;;;3.20;;
6203;SDS011;3135;42.602;23.468;2023-03-13T02:20:02;4.10;;;3.10;;
6203;SDS011;3135;42.602;23.468;2023-03-13T02:25:13;4.60;;;2.70;;
6203;SDS011;3135;42.602;23.468;2023-03-13T02:27:42;3.97;;;2.60;;
6203;SDS011;3135;42.602;23.468;2023-03-13T02:30:12;2.83;;;2.47;;
6203;SDS011;3135;42.602;23.468;2023-03-13T02:32:39;3.38;;;2.45;;
6203;SDS011;3135;42.602;23.468;2023-03-13T02:35:06;5.43;;;2.95;;
6203;SDS011;3135;42.602;23.468;2023-03-13T02:37:34;5.65;;;3.28;;
6203;SDS011;3135;42.602;23.468;2023-03-13T02:40:02;4.13;;;2.43;;
6203;SDS011;3135;42.602;23.468;2023-03-13T02:42:34;3.63;;;2.95;;
6203;SDS011;3135;42.602;23.468;2023-03-13T02:45:02;4.63;;;3.13;;
6203;SDS011;3135;42.602;23.468;2023-03-13T02:47:28;4.23;;;2.40;;
6203;SDS011;3135;42.602;23.468;2023-03-13T02:49:54;4.63;;;3.28;;
6203;SDS011;3135;42.602;23.468;2023-03-13T02:52:29;5.57;;;4.00;;
6203;SDS011;3135;42.602;23.468;2023-03-13T02:55:09;5.32;;;4.30;;
6203;SDS011;3135;42.602;23.468;2023-03-13T02:57:41;3.50;;;2.63;;
6203;SDS011;3135;42.602;23.468;2023-03-13T03:00:07;5.07;;;2.97;;
6203;SDS011;3135;42.602;23.468;2023-03-13T03:02:36;11.45;;;5.47;;
6203;SDS011;3135;42.602;23.468;2023-03-13T03:05:02;8.73;;;4.55;;
6203;SDS011;3135;42.602;23.468;2023-03-13T03:07:28;4.33;;;2.70;;
6203;SDS011;3135;42.602;23.468;2023-03-13T03:09:54;5.38;;;4.15;;
6203;SDS011;3135;42.602;23.468;2023-03-13T03:12:19;5.70;;;3.77;;
6203;SDS011;3135;42.602;23.468;2023-03-13T03:14:44;6.00;;;4.03;;
6203;SDS011;3135;42.602;23.468;2023-03-13T03:17:10;4.97;;;3.35;;
6203;SDS011;3135;42.602;23.468;2023-03-13T03:19:36;6.00;;;3.78;;
6203;SDS011;3135;42.602;23.468;2023-03-13T03:22:01;8.10;;;5.60;;
6203;SDS011;3135;42.602;23.468;2023-03-13T03:24:27;10.83;;;4.77;;
6203;SDS011;3135;42.602;23.468;2023-03-13T03:26:52;14.00;;;5.17;;
6203;SDS011;3135;42.602;23.468;2023-03-13T03:29:18;7.22;;;3.58;;
6203;SDS011;3135;42.602;23.468;2023-03-13T03:31:43;5.57;;;2.97;;
6203;SDS011;3135;42.602;23.468;2023-03-13T03:34:08;4.20;;;2.80;;
6203;SDS011;3135;42.602;23.468;2023-03-13T03:36:34;4.43;;;2.87;;
6203;SDS011;3135;42.602;23.468;2023-03-13T03:38:59;3.03;;;2.70;;
6203;SDS011;3135;42.602;23.468;2023-03-13T03:41:25;3.10;;;2.80;;
6203;SDS011;3135;42.602;23.468;2023-03-13T03:43:50;6.47;;;3.60;;
6203;SDS011;3135;42.602;23.468;2023-03-13T03:46:16;8.93;;;4.90;;
6203;SDS011;3135;42.602;23.468;2023-03-13T03:48:41;4.28;;;3.53;;
6203;SDS011;3135;42.602;23.468;2023-03-13T03:51:06;6.35;;;3.67;;
6203;SDS011;3135;42.602;23.468;2023-03-13T03:53:32;6.13;;;4.07;;
6203;SDS011;3135;42.602;23.468;2023-03-13T03:55:58;4.47;;;2.83;;
6203;SDS011;3135;42.602;23.468;2023-03-13T03:58:23;4.38;;;3.00;;
6203;SDS011;3135;42.602;23.468;2023-03-13T04:00:49;3.03;;;2.50;;
6203;SDS011;3135;42.602;23.468;2023-03-13T04:03:14;3.57;;;2.70;;
6203;SDS011;3135;42.602;23.468;2023-03-13T04:05:40;6.07;;;3.78;;
6203;SDS011;3135;42.602;23.468;2023-03-13T04:08:07;5.68;;;3.53;;
6203;SDS011;3135;42.602;23.468;2023-03-13T04:10:33;5.88;;;3.70;;
6203;SDS011;3135;42.602;23.468;2023-03-13T04:12:59;5.57;;;4.07;;
6203;SDS011;3135;42.602;23.468;2023-03-13T04:15:25;5.40;;;3.90;;
6203;SDS011;3135;42.602;23.468;2023-03-13T04:17:50;3.90;;;2.83;;
6203;SDS011;3135;42.602;23.468;2023-03-13T04:20:16;3.13;;;2.80;;
6203;SDS011;3135;42.602;23.468;2023-03-13T04:22:41;5.07;;;3.90;;
6203;SDS011;3135;42.602;23.468;2023-03-13T04:25:07;13.27;;;7.53;;
6203;SDS011;3135;42.602;23.468;2023-03-13T04:27:33;6.40;;;5.32;;
6203;SDS011;3135;42.602;23.468;2023-03-13T04:29:59;5.25;;;3.90;;
6203;SDS011;3135;42.602;23.468;2023-03-13T04:32:24;5.93;;;3.90;;
6203;SDS011;3135;42.602;23.468;2023-03-13T04:34:50;5.87;;;3.37;;
6203;SDS011;3135;42.602;23.468;2023-03-13T04:37:15;5.53;;;3.13;;
6203;SDS011;3135;42.602;23.468;2023-03-13T04:39:41;9.13;;;4.10;;
6203;SDS011;3135;42.602;23.468;2023-03-13T04:42:07;6.30;;;3.90;;
6203;SDS011;3135;42.602;23.468;2023-03-13T04:44:34;5.93;;;3.55;;
6203;SDS011;3135;42.602;23.468;2023-03-13T04:47:00;5.03;;;3.30;;
6203;SDS011;3135;42.602;23.468;2023-03-13T04:49:25;5.13;;;3.47;;
6203;SDS011;3135;42.602;23.468;2023-03-13T04:51:50;7.13;;;3.97;;
6203;SDS011;3135;42.602;23.468;2023-03-13T04:54:16;7.43;;;4.53;;
6203;SDS011;3135;42.602;23.468;2023-03-13T04:56:41;38.13;;;13.37;;
6203;SDS011;3135;42.602;23.468;2023-03-13T04:59:07;36.30;;;13.47;;
6203;SDS011;3135;42.602;23.468;2023-03-13T05:01:33;34.90;;;14.10;;
6203;SDS011;3135;42.602;23.468;2023-03-13T05:03:59;11.47;;;5.50;;
6203;SDS011;3135;42.602;23.468;2023-03-13T05:06:24;12.53;;;6.03;;
6203;SDS011;3135;42.602;23.468;2023-03-13T05:08:50;15.80;;;6.90;;
6203;SDS011;3135;42.602;23.468;2023-03-13T05:11:15;11.20;;;5.50;;
6203;SDS011;3135;42.602;23.468;2023-03-13T05:13:40;10.73;;;5.45;;
6203;SDS011;3135;42.602;23.468;2023-03-13T05:16:06;8.65;;;4.47;;
6203;SDS011;3135;42.602;23.468;2023-03-13T05:18:31;9.17;;;5.17;;
6203;SDS011;3135;42.602;23.468;2023-03-13T05:20:57;13.33;;;5.47;;
6203;SDS011;3135;42.602;23.468;2023-03-13T05:23:22;25.83;;;10.45;;
6203;SDS011;3135;42.602;23.468;2023-03-13T05:25:48;22.95;;;9.80;;
6203;SDS011;3135;42.602;23.468;2023-03-13T05:28:13;43.17;;;17.20;;
6203;SDS011;3135;42.602;23.468;2023-03-13T05:30:39;50.53;;;19.63;;
6203;SDS011;3135;42.602;23.468;2023-03-13T05:33:04;52.93;;;19.53;;
6203;SDS011;3135;42.602;23.468;2023-03-13T05:35:30;33.90;;;14.37;;
6203;SDS011;3135;42.602;23.468;2023-03-13T05:37:55;30.48;;;13.50;;
6203;SDS011;3135;42.602;23.468;2023-03-13T05:40:20;15.35;;;7.50;;
6203;SDS011;3135;42.602;23.468;2023-03-13T05:42:46;13.57;;;6.57;;
6203;SDS011;3135;42.602;23.468;2023-03-13T05:45:12;15.93;;;7.63;;
6203;SDS011;3135;42.602;23.468;2023-03-13T05:47:38;21.77;;;9.97;;
6203;SDS011;3135;42.602;23.468;2023-03-13T05:50:04;24.77;;;12.43;;
6203;SDS011;3135;42.602;23.468;2023-03-13T05:52:31;20.75;;;10.15;;
6203;SDS011;3135;42.602;23.468;2023-03-13T05:54:57;16.95;;;8.18;;
6203;SDS011;3135;42.602;23.468;2023-03-13T05:57:23;13.70;;;7.13;;
6203;SDS011;3135;42.602;23.468;2023-03-13T05:59:48;14.27;;;7.10;;
6203;SDS011;3135;42.602;23.468;2023-03-13T06:02:14;12.67;;;6.73;;
6203;SDS011;3135;42.602;23.468;2023-03-13T06:04:39;15.53;;;7.73;;
6203;SDS011;3135;42.602;23.468;2023-03-13T06:07:05;12.20;;;6.10;;
6203;SDS011;3135;42.602;23.468;2023-03-13T06:09:30;12.40;;;6.40;;
6203;SDS011;3135;42.602;23.468;2023-03-13T06:11:55;12.05;;;6.15;;
6203;SDS011;3135;42.602;23.468;2023-03-13T06:14:21;12.10;;;6.37;;
6203;SDS011;3135;42.602;23.468;2023-03-13T06:16:46;10.87;;;6.03;;
6203;SDS011;3135;42.602;23.468;2023-03-13T06:19:12;11.50;;;5.67;;
6203;SDS011;3135;42.602;23.468;2023-03-13T06:21:38;11.02;;;6.07;;
6203;SDS011;3135;42.602;23.468;2023-03-13T06:24:03;12.67;;;6.13;;
6203;SDS011;3135;42.602;23.468;2023-03-13T06:26:29;12.02;;;6.35;;
6203;SDS011;3135;42.602;23.468;2023-03-13T06:28:54;12.50;;;6.30;;
6203;SDS011;3135;42.602;23.468;2023-03-13T06:31:20;14.70;;;6.73;;
6203;SDS011;3135;42.602;23.468;2023-03-13T06:33:46;12.70;;;6.03;;
6203;SDS011;3135;42.602;23.468;2023-03-13T06:36:11;12.03;;;6.33;;
6203;SDS011;3135;42.602;23.468;2023-03-13T06:38:37;12.60;;;6.50;;
6203;SDS011;3135;42.602;23.468;2023-03-13T06:41:02;15.30;;;7.30;;
6203;SDS011;3135;42.602;23.468;2023-03-13T06:43:28;16.67;;;7.50;;
6203;SDS011;3135;42.602;23.468;2023-03-13T06:45:53;17.30;;;7.47;;
6203;SDS011;3135;42.602;23.468;2023-03-13T06:48:19;19.53;;;8.93;;
6203;SDS011;3135;42.602;23.468;2023-03-13T06:50:47;19.10;;;8.50;;
6203;SDS011;3135;42.602;23.468;2023-03-13T06:53:16;22.33;;;8.50;;
6203;SDS011;3135;42.602;23.468;2023-03-13T06:55:43;12.63;;;6.75;;
6203;SDS011;3135;42.602;23.468;2023-03-13T06:58:10;15.15;;;7.80;;
6203;SDS011;3135;42.602;23.468;2023-03-13T07:00:35;15.00;;;8.00;;
6203;SDS011;3135;42.602;23.468;2023-03-13T07:03:01;19.10;;;8.70;;
6203;SDS011;3135;42.602;23.468;2023-03-13T07:05:26;16.35;;;7.93;;
6203;SDS011;3135;42.602;23.468;2023-03-13T07:07:51;15.10;;;7.85;;
6203;SDS011;3135;42.602;23.468;2023-03-13T07:10:17;16.03;;;7.40;;
6203;SDS011;3135;42.602;23.468;2023-03-13T07:12:43;14.27;;;6.60;;
6203;SDS011;3135;42.602;23.468;2023-03-13T07:15:09;14.25;;;6.90;;
6203;SDS011;3135;42.602;23.468;2023-03-13T07:17:35;12.55;;;7.10;;
6203;SDS011;3135;42.602;23.468;2023-03-13T07:20:01;13.45;;;7.15;;
6203;SDS011;3135;42.602;23.468;2023-03-13T07:22:29;13.20;;;6.70;;
6203;SDS011;3135;42.602;23.468;2023-03-13T07:24:54;12.23;;;6.20;;
6203;SDS011;3135;42.602;23.468;2023-03-13T07:27:20;14.15;;;7.00;;
6203;SDS011;3135;42.602;23.468;2023-03-13T07:29:46;12.07;;;6.72;;
6203;SDS011;3135;42.602;23.468;2023-03-13T07:32:12;11.73;;;6.93;;
6203;SDS011;3135;42.602;23.468;2023-03-13T07:34:37;13.67;;;6.87;;
6203;SDS011;3135;42.602;23.468;2023-03-13T07:37:02;13.17;;;6.90;;
6203;SDS011;3135;42.602;23.468;2023-03-13T07:39:28;16.00;;;8.00;;
6203;SDS011;3135;42.602;23.468;2023-03-13T07:41:53;20.17;;;9.37;;
6203;SDS011;3135;42.602;23.468;2023-03-13T07:44:19;11.70;;;6.47;;
6203;SDS011;3135;42.602;23.468;2023-03-13T07:46:44;11.80;;;6.80;;
6203;SDS011;3135;42.602;23.468;2023-03-13T07:49:12;18.45;;;8.00;;
6203;SDS011;3135;42.602;23.468;2023-03-13T07:51:37;17.47;;;8.63;;
6203;SDS011;3135;42.602;23.468;2023-03-13T07:54:03;14.50;;;7.43;;
6203;SDS011;3135;42.602;23.468;2023-03-13T07:56:29;16.83;;;8.30;;
6203;SDS011;3135;42.602;23.468;2023-03-13T07:58:54;11.55;;;7.20;;
6203;SDS011;3135;42.602;23.468;2023-03-13T08:01:21;16.73;;;8.00;;
6203;SDS011;3135;42.602;23.468;2023-03-13T08:03:47;13.87;;;7.23;;
6203;SDS011;3135;42.602;23.468;2023-03-13T08:06:15;12.77;;;6.90;;
6203;SDS011;3135;42.602;23.468;2023-03-13T08:08:43;12.93;;;6.65;;
6203;SDS011;3135;42.602;23.468;2023-03-13T08:11:09;15.40;;;7.30;;
6203;SDS011;3135;42.602;23.468;2023-03-13T08:13:40;14.00;;;6.95;;
6203;SDS011;3135;42.602;23.468;2023-03-13T08:16:07;11.98;;;6.63;;
6203;SDS011;3135;42.602;23.468;2023-03-13T08:18:37;15.50;;;6.50;;
6203;SDS011;3135;42.602;23.468;2023-03-13T08:21:08;14.57;;;6.95;;
6203;SDS011;3135;42.602;23.468;2023-03-13T08:23:36;17.35;;;7.97;;
6203;SDS011;3135;42.602;23.468;2023-03-13T08:28:35;13.10;;;7.28;;
6203;SDS011;3135;42.602;23.468;2023-03-13T08:31:07;13.45;;;7.70;;
6203;SDS011;3135;42.602;23.468;2023-03-13T08:33:43;12.67;;;6.70;;
6203;SDS011;3135;42.602;23.468;2023-03-13T08:36:10;15.57;;;6.38;;
6203;SDS011;3135;42.602;23.468;2023-03-13T08:38:38;15.68;;;7.60;;
6203;SDS011;3135;42.602;23.468;2023-03-13T08:41:06;12.57;;;7.15;;
6203;SDS011;3135;42.602;23.468;2023-03-13T08:43:31;13.48;;;6.70;;
6203;SDS011;3135;42.602;23.468;2023-03-13T08:45:57;16.88;;;7.43;;
6203;SDS011;3135;42.602;23.468;2023-03-13T08:48:22;10.07;;;6.63;;
6203;SDS011;3135;42.602;23.468;2023-03-13T08:50:58;10.15;;;6.25;;
6203;SDS011;3135;42.602;23.468;2023-03-13T08:53:24;11.50;;;5.93;;
6203;SDS011;3135;42.602;23.468;2023-03-13T08:55:53;9.77;;;6.70;;
6203;SDS011;3135;42.602;23.468;2023-03-13T08:58:19;9.77;;;6.05;;
6203;SDS011;3135;42.602;23.468;2023-03-13T09:00:44;12.07;;;6.82;;
6203;SDS011;3135;42.602;23.468;2023-03-13T09:03:10;12.32;;;6.45;;
6203;SDS011;3135;42.602;23.468;2023-03-13T09:05:38;10.60;;;6.38;;
6203;SDS011;3135;42.602;23.468;2023-03-13T09:08:04;10.87;;;6.20;;
6203;SDS011;3135;42.602;23.468;2023-03-13T09:10:33;9.98;;;5.88;;
6203;SDS011;3135;42.602;23.468;2023-03-13T09:13:00;11.38;;;6.75;;
6203;SDS011;3135;42.602;23.468;2023-03-13T09:15:25;12.50;;;7.10;;
6203;SDS011;3135;42.602;23.468;2023-03-13T09:17:51;11.83;;;6.43;;
6203;SDS011;3135;42.602;23.468;2023-03-13T09:20:16;11.40;;;6.30;;
6203;SDS011;3135;42.602;23.468;2023-03-13T09:22:43;11.93;;;6.57;;
6203;SDS011;3135;42.602;23.468;2023-03-13T09:25:11;16.58;;;7.68;;
6203;SDS011;3135;42.602;23.468;2023-03-13T09:27:37;13.45;;;7.63;;
6203;SDS011;3135;42.602;23.468;2023-03-13T09:30:03;12.70;;;6.50;;
6203;SDS011;3135;42.602;23.468;2023-03-13T09:32:29;11.65;;;5.95;;
6203;SDS011;3135;42.602;23.468;2023-03-13T09:34:54;11.63;;;6.23;;
6203;SDS011;3135;42.602;23.468;2023-03-13T09:37:20;10.23;;;6.03;;
6203;SDS011;3135;42.602;23.468;2023-03-13T09:39:47;10.95;;;6.05;;
6203;SDS011;3135;42.602;23.468;2023-03-13T09:42:14;10.17;;;5.97;;
6203;SDS011;3135;42.602;23.468;2023-03-13T09:44:47;9.57;;;5.65;;
6203;SDS011;3135;42.602;23.468;2023-03-13T09:47:20;9.77;;;6.20;;
6203;SDS011;3135;42.602;23.468;2023-03-13T09:50:02;9.88;;;5.85;;
6203;SDS011;3135;42.602;23.468;2023-03-13T09:52:39;11.52;;;6.20;;
6203;SDS011;3135;42.602;23.468;2023-03-13T09:57:57;16.58;;;7.85;;
6203;SDS011;3135;42.602;23.468;2023-03-13T10:03:06;9.60;;;6.15;;
6203;SDS011;3135;42.602;23.468;2023-03-13T10:05:48;14.70;;;6.22;;
6203;SDS011;3135;42.602;23.468;2023-03-13T10:08:18;9.55;;;5.88;;
6203;SDS011;3135;42.602;23.468;2023-03-13T10:13:21;8.43;;;5.50;;
6203;SDS011;3135;42.602;23.468;2023-03-13T10:15:55;9.68;;;5.65;;
6203;SDS011;3135;42.602;23.468;2023-03-13T10:18:25;10.30;;;5.45;;
6203;SDS011;3135;42.602;23.468;2023-03-13T10:20:52;9.95;;;5.50;;
6203;SDS011;3135;42.602;23.468;2023-03-13T10:25:51;8.10;;;5.63;;
6203;SDS011;3135;42.602;23.468;2023-03-13T10:28:17;11.63;;;6.38;;
6203;SDS011;3135;42.602;23.468;2023-03-13T10:30:50;7.68;;;5.72;;
6203;SDS011;3135;42.602;23.468;2023-03-13T10:33:24;8.45;;;5.63;;
6203;SDS011;3135;42.602;23.468;2023-03-13T10:36:04;9.73;;;6.00;;
6203;SDS011;3135;42.602;23.468;2023-03-13T10:38:45;8.55;;;5.47;;
6203;SDS011;3135;42.602;23.468;2023-03-13T10:41:28;7.68;;;5.72;;
6203;SDS011;3135;42.602;23.468;2023-03-13T10:43:58;9.43;;;6.10;;
6203;SDS011;3135;42.602;23.468;2023-03-13T10:46:45;8.80;;;6.18;;
6203;SDS011;3135;42.602;23.468;2023-03-13T10:49:19;9.52;;;5.88;;
6203;SDS011;3135;42.602;23.468;2023-03-13T10:51:50;9.90;;;5.70;;
6203;SDS011;3135;42.602;23.468;2023-03-13T10:54:50;8.33;;;5.23;;
6203;SDS011;3135;42.602;23.468;2023-03-13T10:59:49;9.00;;;5.45;;
6203;SDS011;3135;42.602;23.468;2023-03-13T11:05:06;8.45;;;5.50;;
6203;SDS011;3135;42.602;23.468;2023-03-13T11:07:48;7.93;;;5.93;;
6203;SDS011;3135;42.602;23.468;2023-03-13T11:10:17;12.52;;;5.82;;
6203;SDS011;3135;42.602;23.468;2023-03-13T11:12:49;8.43;;;5.50;;
6203;SDS011;3135;42.602;23.468;2023-03-13T11:20:34;7.95;;;5.57;;
6203;SDS011;3135;42.602;23.468;2023-03-13T11:39:46;9.93;;;6.00;;
6203;SDS011;3135;42.602;23.468;2023-03-13T11:56:46;10.43;;;6.10;;
6203;SDS011;3135;42.602;23.468;2023-03-13T12:02:01;8.10;;;5.68;;
6203;SDS011;3135;42.602;23.468;2023-03-13T12:04:41;9.77;;;6.00;;
6203;SDS011;3135;42.602;23.468;2023-03-13T12:07:20;9.63;;;5.97;;
6203;SDS011;3135;42.602;23.468;2023-03-13T12:10:01;10.77;;;5.40;;
6203;SDS011;3135;42.602;23.468;2023-03-13T12:12:38;8.95;;;5.35;;
6203;SDS011;3135;42.602;23.468;2023-03-13T12:17:57;7.53;;;5.10;;
6203;SDS011;3135;42.602;23.468;2023-03-13T12:20:38;8.77;;;5.77;;
6203;SDS011;3135;42.602;23.468;2023-03-13T12:26:12;9.65;;;5.53;;
6203;SDS011;3135;42.602;23.468;2023-03-13T12:28:42;9.07;;;5.65;;
6203;SDS011;3135;42.602;23.468;2023-03-13T12:34:33;10.07;;;5.97;;
6203;SDS011;3135;42.602;23.468;2023-03-13T12:39:48;11.93;;;5.78;;
6203;SDS011;3135;42.602;23.468;2023-03-13T12:44:59;8.25;;;5.13;;
6203;SDS011;3135;42.602;23.468;2023-03-13T12:47:31;8.07;;;5.10;;
6203;SDS011;3135;42.602;23.468;2023-03-13T12:53:06;7.72;;;5.03;;
6203;SDS011;3135;42.602;23.468;2023-03-13T12:58:23;8.52;;;5.10;;
6203;SDS011;3135;42.602;23.468;2023-03-13T13:00:49;8.73;;;5.22;;
6203;SDS011;3135;42.602;23.468;2023-03-13T13:08:24;6.20;;;5.00;;
6203;SDS011;3135;42.602;23.468;2023-03-13T13:10:51;9.83;;;5.83;;
6203;SDS011;3135;42.602;23.468;2023-03-13T13:13:17;8.10;;;4.70;;
6203;SDS011;3135;42.602;23.468;2023-03-13T13:16:01;7.47;;;4.93;;
6203;SDS011;3135;42.602;23.468;2023-03-13T13:18:30;7.53;;;4.65;;
6203;SDS011;3135;42.602;23.468;2023-03-13T13:23:36;7.07;;;5.10;;
6203;SDS011;3135;42.602;23.468;2023-03-13T13:28:53;7.78;;;4.95;;
6203;SDS011;3135;42.602;23.468;2023-03-13T13:36:52;7.80;;;5.07;;
6203;SDS011;3135;42.602;23.468;2023-03-13T13:39:38;9.68;;;4.72;;
6203;SDS011;3135;42.602;23.468;2023-03-13T13:44:59;13.63;;;7.43;;
6203;SDS011;3135;42.602;23.468;2023-03-13T13:47:27;7.80;;;4.63;;
6203;SDS011;3135;42.602;23.468;2023-03-13T13:49:55;7.68;;;4.50;;
6203;SDS011;3135;42.602;23.468;2023-03-13T13:52:37;7.28;;;4.82;;
6203;SDS011;3135;42.602;23.468;2023-03-13T14:03:30;10.10;;;6.28;;
6203;SDS011;3135;42.602;23.468;2023-03-13T14:08:43;10.07;;;4.63;;
6203;SDS011;3135;42.602;23.468;2023-03-13T14:13:37;9.10;;;4.45;;
6203;SDS011;3135;42.602;23.468;2023-03-13T14:18:49;9.73;;;5.05;;
6203;SDS011;3135;42.602;23.468;2023-03-13T14:21:19;6.82;;;4.30;;
6203;SDS011;3135;42.602;23.468;2023-03-13T14:23:47;10.45;;;5.85;;
6203;SDS011;3135;42.602;23.468;2023-03-13T14:26:14;6.87;;;5.00;;
6203;SDS011;3135;42.602;23.468;2023-03-13T14:28:48;9.18;;;4.95;;
6203;SDS011;3135;42.602;23.468;2023-03-13T14:31:28;28.40;;;10.53;;
6203;SDS011;3135;42.602;23.468;2023-03-13T14:33:59;10.03;;;5.00;;
6203;SDS011;3135;42.602;23.468;2023-03-13T14:36:30;9.25;;;4.97;;
6203;SDS011;3135;42.602;23.468;2023-03-13T14:42:03;11.15;;;6.53;;
6203;SDS011;3135;42.602;23.468;2023-03-13T14:44:29;6.78;;;4.63;;
6203;SDS011;3135;42.602;23.468;2023-03-13T14:46:58;9.85;;;6.43;;
6203;SDS011;3135;42.602;23.468;2023-03-13T14:49:28;9.55;;;4.90;;
6203;SDS011;3135;42.602;23.468;2023-03-13T14:51:57;8.90;;;5.70;;
6203;SDS011;3135;42.602;23.468;2023-03-13T14:54:32;8.00;;;4.50;;
6203;SDS011;3135;42.602;23.468;2023-03-13T14:59:34;8.47;;;4.20;;
6203;SDS011;3135;42.602;23.468;2023-03-13T15:02:00;9.90;;;4.40;;
6203;SDS011;3135;42.602;23.468;2023-03-13T15:07:54;6.20;;;3.80;;
6203;SDS011;3135;42.602;23.468;2023-03-13T15:10:33;6.55;;;3.70;;
6203;SDS011;3135;42.602;23.468;2023-03-13T15:15:49;6.38;;;3.80;;
6203;SDS011;3135;42.602;23.468;2023-03-13T15:18:18;7.22;;;4.05;;
6203;SDS011;3135;42.602;23.468;2023-03-13T15:20:58;4.45;;;3.90;;
6203;SDS011;3135;42.602;23.468;2023-03-13T15:24:29;4.22;;;3.60;;
6203;SDS011;3135;42.602;23.468;2023-03-13T15:26:37;6.78;;;4.10;;
6203;SDS011;3135;42.602;23.468;2023-03-13T15:29:02;10.53;;;5.93;;
6203;SDS011;3135;42.602;23.468;2023-03-13T15:31:28;4.07;;;3.50;;
6203;SDS011;3135;42.602;23.468;2023-03-13T15:33:57;5.10;;;3.67;;
6203;SDS011;3135;42.602;23.468;2023-03-13T15:36:25;5.63;;;3.65;;
6203;SDS011;3135;42.602;23.468;2023-03-13T15:38:52;4.75;;;3.55;;
6203;SDS011;3135;42.602;23.468;2023-03-13T15:41:19;5.28;;;3.28;;
6203;SDS011;3135;42.602;23.468;2023-03-13T15:43:45;11.70;;;5.82;;
6203;SDS011;3135;42.602;23.468;2023-03-13T15:46:14;10.07;;;5.72;;
6203;SDS011;3135;42.602;23.468;2023-03-13T15:48:40;6.20;;;3.92;;
6203;SDS011;3135;42.602;23.468;2023-03-13T15:51:08;6.78;;;4.13;;
6203;SDS011;3135;42.602;23.468;2023-03-13T15:53:36;6.47;;;4.30;;
6203;SDS011;3135;42.602;23.468;2023-03-13T15:56:02;6.75;;;3.72;;
6203;SDS011;3135;42.602;23.468;2023-03-13T15:58:35;7.63;;;4.00;;
6203;SDS011;3135;42.602;23.468;2023-03-13T16:01:01;12.80;;;8.50;;
6203;SDS011;3135;42.602;23.468;2023-03-13T16:03:27;7.75;;;5.28;;
6203;SDS011;3135;42.602;23.468;2023-03-13T16:05:53;12.57;;;8.65;;
6203;SDS011;3135;42.602;23.468;2023-03-13T16:08:20;15.70;;;8.60;;
6203;SDS011;3135;42.602;23.468;2023-03-13T16:10:51;5.93;;;4.22;;
6203;SDS011;3135;42.602;23.468;2023-03-13T16:13:17;6.15;;;3.70;;
6203;SDS011;3135;42.602;23.468;2023-03-13T16:15:43;6.82;;;3.78;;
6203;SDS011;3135;42.602;23.468;2023-03-13T16:18:15;5.65;;;3.65;;
6203;SDS011;3135;42.602;23.468;2023-03-13T16:20:46;6.00;;;3.72;;
6203;SDS011;3135;42.602;23.468;2023-03-13T16:23:11;7.03;;;4.00;;
6203;SDS011;3135;42.602;23.468;2023-03-13T16:25:37;5.97;;;3.50;;
6203;SDS011;3135;42.602;23.468;2023-03-13T16:28:03;6.35;;;3.55;;
6203;SDS011;3135;42.602;23.468;2023-03-13T16:30:31;5.40;;;3.53;;
6203;SDS011;3135;42.602;23.468;2023-03-13T16:32:58;5.55;;;3.85;;
6203;SDS011;3135;42.602;23.468;2023-03-13T16:35:24;7.18;;;3.83;;
6203;SDS011;3135;42.602;23.468;2023-03-13T16:37:55;6.72;;;3.65;;
6203;SDS011;3135;42.602;23.468;2023-03-13T16:40:22;4.95;;;3.60;;
6203;SDS011;3135;42.602;23.468;2023-03-13T16:42:50;5.50;;;3.40;;
6203;SDS011;3135;42.602;23.468;2023-03-13T16:45:16;6.53;;;3.87;;
6203;SDS011;3135;42.602;23.468;2023-03-13T16:47:42;5.88;;;3.80;;
6203;SDS011;3135;42.602;23.468;2023-03-13T16:50:20;7.27;;;3.97;;
6203;SDS011;3135;42.602;23.468;2023-03-13T16:52:55;6.07;;;3.97;;
6203;SDS011;3135;42.602;23.468;2023-03-13T16:55:21;7.90;;;4.10;;
6203;SDS011;3135;42.602;23.468;2023-03-13T16:57:55;5.45;;;3.70;;
6203;SDS011;3135;42.602;23.468;2023-03-13T17:00:23;6.57;;;3.70;;
6203;SDS011;3135;42.602;23.468;2023-03-13T17:02:50;5.60;;;3.63;;
6203;SDS011;3135;42.602;23.468;2023-03-13T17:05:16;10.38;;;4.45;;
6203;SDS011;3135;42.602;23.468;2023-03-13T17:07:42;6.78;;;3.90;;
6203;SDS011;3135;42.602;23.468;2023-03-13T17:10:26;5.28;;;3.50;;
6203;SDS011;3135;42.602;23.468;2023-03-13T17:12:54;8.52;;;4.82;;
6203;SDS011;3135;42.602;23.468;2023-03-13T17:15:19;6.10;;;3.40;;